Time;durP1;ratioP1;P1;durP2;ratioP2;P2;SDS_P1;SDS_P2;PMS_P1;PMS_P2;Temp;Humidity;BMP_temperature;BMP_pressure;BME280_temperature;BME280_humidity;BME280_pressure;Samples;Min_cycle;Max_cycle;Signal;HPM_P1;HPM_P2
2024/02/19 00:02:18;;;;;;;1.80;1.50;;;8.50;99.90;;;9.27;100.00;98907.72;4981864;28;20468;-75
2024/02/19 00:04:47;;;;;;;3.03;1.60;;;8.60;99.90;;;9.28;100.00;98915.41;4982133;28;20890;-75
2024/02/19 00:07:17;;;;;;;1.60;1.47;;;8.60;99.90;;;9.31;100.00;98917.69;4981703;28;20472;-75
2024/02/19 00:09:46;;;;;;;1.63;1.53;;;8.60;99.90;;;9.31;100.00;98919.47;4982697;28;20456;-75
2024/02/19 00:12:16;;;;;;;1.73;1.40;;;8.60;99.90;;;9.30;100.00;98925.69;4982435;28;20480;-75
2024/02/19 00:14:45;;;;;;;1.67;1.37;;;8.60;99.90;;;9.26;100.00;98921.75;4981169;28;20463;-75
2024/02/19 00:17:14;;;;;;;1.50;1.40;;;8.60;99.90;;;9.30;100.00;98934.31;4984696;28;20480;-75
2024/02/19 00:19:42;;;;;;;1.53;1.43;;;8.70;99.90;;;9.34;100.00;98933.03;4982456;28;20505;-74
2024/02/19 00:22:11;;;;;;;1.50;1.40;;;8.70;99.90;;;9.39;100.00;98930.78;4981132;28;20971;-75
2024/02/19 00:24:39;;;;;;;2.93;1.67;;;8.80;99.90;;;9.43;100.00;98937.31;4981549;28;20595;-75
2024/02/19 00:27:08;;;;;;;1.47;1.37;;;8.80;99.90;;;9.46;100.00;98933.56;4982981;28;20598;-75
2024/02/19 00:29:38;;;;;;;1.10;1.00;;;8.80;99.90;;;9.46;100.00;98939.63;4984326;28;21038;-74
2024/02/19 00:32:07;;;;;;;2.03;1.23;;;8.90;99.90;;;9.48;100.00;98942.88;4982919;28;20475;-75
2024/02/19 00:34:37;;;;;;;3.60;1.60;;;9.00;99.90;;;9.50;100.00;98946.16;4984577;28;20521;-75
2024/02/19 00:37:06;;;;;;;1.53;1.27;;;8.90;99.90;;;9.52;100.00;98944.19;4982097;28;20474;-75
2024/02/19 00:39:34;;;;;;;1.70;1.33;;;8.90;99.90;;;9.55;100.00;98948.28;4981081;28;20452;-75
2024/02/19 00:42:04;;;;;;;1.87;1.73;;;8.90;99.90;;;9.54;100.00;98955.28;4982689;28;20459;-75
2024/02/19 00:44:33;;;;;;;2.40;1.73;;;9.00;99.90;;;9.55;100.00;98951.72;4981164;28;21066;-75
2024/02/19 00:47:03;;;;;;;1.70;1.60;;;9.00;99.90;;;9.58;100.00;98954.00;4982223;28;20475;-75
2024/02/19 00:49:31;;;;;;;1.30;1.20;;;8.90;99.90;;;9.59;100.00;98950.44;4982418;28;20531;-75
2024/02/19 00:51:59;;;;;;;3.27;1.57;;;9.00;99.90;;;9.59;100.00;98950.44;4982799;28;21246;-75
2024/02/19 00:54:28;;;;;;;1.70;1.60;;;9.00;99.90;;;9.63;100.00;98950.09;4981879;28;20851;-75
2024/02/19 00:56:56;;;;;;;2.67;1.90;;;9.10;99.90;;;9.63;100.00;98955.31;4981966;28;20464;-75
2024/02/19 00:59:26;;;;;;;2.80;1.83;;;9.10;99.90;;;9.66;100.00;98955.00;4981594;28;20800;-75
2024/02/19 01:01:54;;;;;;;4.23;2.13;;;9.10;99.90;;;9.61;100.00;98965.94;4981322;28;20467;-75
2024/02/19 01:04:24;;;;;;;3.77;1.87;;;9.00;99.90;;;9.64;100.00;98964.81;4981400;28;20711;-75
2024/02/19 01:06:53;;;;;;;7.33;2.17;;;9.10;99.90;;;9.60;100.00;98964.31;4981164;28;21343;-75
2024/02/19 01:09:23;;;;;;;7.30;2.50;;;9.10;99.90;;;9.57;100.00;98965.44;4981991;28;20589;-75
2024/02/19 01:11:51;;;;;;;13.83;3.97;;;9.00;99.90;;;9.55;100.00;98966.56;4981181;28;20885;-75
2024/02/19 01:14:20;;;;;;;2.43;1.67;;;9.00;99.90;;;9.59;100.00;98973.94;4981326;28;20588;-76
2024/02/19 01:16:48;;;;;;;2.57;2.10;;;8.90;99.90;;;9.58;100.00;98969.66;4982413;28;20862;-75
2024/02/19 01:19:17;;;;;;;4.93;1.97;;;9.10;99.90;;;9.59;100.00;98981.75;4981340;28;20844;-75
2024/02/19 01:21:47;;;;;;;9.10;2.40;;;9.00;99.90;;;9.55;100.00;98980.44;4981970;28;20523;-75
2024/02/19 01:24:16;;;;;;;5.07;1.90;;;8.90;99.90;;;9.56;100.00;98989.91;4981842;28;20487;-75
2024/02/19 01:26:45;;;;;;;5.83;3.40;;;9.00;99.90;;;9.49;100.00;99001.13;4980938;28;20841;-75
2024/02/19 01:29:14;;;;;;;14.07;4.23;;;9.00;99.90;;;9.48;100.00;98992.47;4981647;28;20472;-75
2024/02/19 01:31:43;;;;;;;2.90;1.77;;;9.00;99.90;;;9.47;100.00;98990.88;4982717;28;20464;-75
2024/02/19 01:34:11;;;;;;;2.80;1.50;;;8.90;99.90;;;9.44;100.00;98998.19;4981587;28;20472;-75
2024/02/19 01:36:40;;;;;;;6.63;1.90;;;8.90;99.90;;;9.43;100.00;98999.16;4981890;28;20870;-75
2024/02/19 01:39:10;;;;;;;3.37;1.77;;;8.90;99.90;;;9.35;100.00;99010.38;4980768;28;20978;-75
2024/02/19 01:41:38;;;;;;;6.60;1.80;;;8.80;99.90;;;9.33;100.00;99016.72;4983901;28;20463;-75
2024/02/19 01:44:08;;;;;;;3.67;1.70;;;8.80;99.90;;;9.38;100.00;99009.22;4983617;28;20479;-75
2024/02/19 01:46:42;;;;;;;8.40;2.17;;;8.70;99.90;;;9.36;100.00;99022.44;4981635;28;20932;-75
2024/02/19 01:49:12;;;;;;;4.90;2.77;;;8.90;99.90;;;9.31;100.00;99021.25;4981318;28;20472;-75
2024/02/19 01:51:42;;;;;;;7.97;1.80;;;8.80;99.90;;;9.31;100.00;99029.91;4980536;28;20467;-75
2024/02/19 01:54:14;;;;;;;8.03;2.10;;;8.80;99.90;;;9.27;100.00;99020.75;4981091;28;20490;-74
2024/02/19 01:56:44;;;;;;;11.50;1.87;;;8.70;99.90;;;9.22;100.00;99028.25;4981542;28;20669;-75
2024/02/19 01:59:20;;;;;;;12.33;1.93;;;8.70;99.90;;;9.24;100.00;99028.88;4980901;28;20526;-75
2024/02/19 02:01:50;;;;;;;10.67;2.33;;;8.80;99.90;;;9.23;100.00;99024.66;4979775;28;20803;-75
2024/02/19 02:04:20;;;;;;;3.00;1.80;;;8.80;99.90;;;9.22;100.00;99028.25;4980363;28;20530;-74
2024/02/19 02:06:50;;;;;;;2.97;1.53;;;8.70;99.90;;;9.26;100.00;99041.81;4979989;28;20464;-75
2024/02/19 02:09:20;;;;;;;10.33;2.30;;;8.70;99.90;;;9.25;100.00;99040.16;4980759;28;20471;-75
2024/02/19 02:11:49;;;;;;;1.90;1.53;;;8.60;99.90;;;9.26;100.00;99037.41;4979675;28;20529;-75
2024/02/19 02:14:18;;;;;;;5.10;2.00;;;8.70;99.90;;;9.26;100.00;99037.41;4980264;28;20563;-75
2024/02/19 02:16:46;;;;;;;7.50;1.93;;;8.70;99.90;;;9.27;100.00;99033.78;4979883;28;20514;-75
2024/02/19 02:19:16;;;;;;;6.33;2.07;;;8.80;99.90;;;9.28;100.00;99038.06;4980580;28;20467;-75
2024/02/19 02:21:45;;;;;;;4.43;2.00;;;8.60;99.90;;;9.31;100.00;99029.91;4980671;28;20519;-75
2024/02/19 02:24:14;;;;;;;8.57;2.23;;;8.80;99.90;;;9.32;100.00;99030.72;4981111;28;20494;-74
2024/02/19 02:26:43;;;;;;;3.73;1.70;;;8.80;99.90;;;9.29;100.00;99042.31;4980603;28;20566;-75
2024/02/19 02:29:12;;;;;;;7.83;2.10;;;8.80;99.90;;;9.31;100.00;99029.09;4978999;28;20467;-75
2024/02/19 02:31:40;;;;;;;7.60;2.00;;;8.70;99.90;;;9.31;100.00;99029.91;4980180;28;20463;-75
2024/02/19 02:34:09;;;;;;;6.00;1.87;;;8.90;99.90;;;9.27;100.00;99028.59;4979924;28;20997;-76
2024/02/19 02:36:40;;;;;;;4.30;1.80;;;8.90;99.90;;;9.32;100.00;99035.94;4981712;28;20468;-75
2024/02/19 02:39:08;;;;;;;5.73;1.30;;;8.80;99.90;;;9.30;100.00;99024.88;4983113;28;20459;-75
2024/02/19 02:41:37;;;;;;;2.10;1.60;;;8.80;99.90;;;9.25;100.00;99035.75;4981518;28;21007;-75
2024/02/19 02:44:07;;;;;;;9.60;2.30;;;8.80;99.90;;;9.22;100.00;99036.06;4980894;28;20459;-75
2024/02/19 02:46:36;;;;;;;4.70;1.47;;;8.70;99.90;;;9.21;100.00;99023.16;4979570;28;20631;-75
2024/02/19 02:49:04;;;;;;;3.20;1.63;;;8.70;99.90;;;9.21;100.00;99029.19;4983677;28;20880;-75
2024/02/19 02:51:33;;;;;;;4.00;1.30;;;8.60;99.90;;;9.26;100.00;99032.19;4987746;28;20468;-74
2024/02/19 02:54:01;;;;;;;5.07;1.50;;;8.70;99.90;;;9.29;100.00;99034.47;4986656;28;20975;-75
2024/02/19 02:56:30;;;;;;;4.70;1.67;;;8.60;99.90;;;9.26;100.00;99021.75;4985808;28;20474;-75
2024/02/19 02:58:58;;;;;;;3.60;1.30;;;8.80;99.90;;;9.24;100.00;99036.72;4985407;28;20460;-75
2024/02/19 03:01:31;;;;;;;2.50;1.30;;;8.80;99.90;;;9.24;100.00;99028.88;4988372;28;20475;-75
2024/02/19 03:03:59;;;;;;;4.33;1.40;;;8.70;99.90;;;9.22;100.00;99030.84;4986604;28;20479;-75
2024/02/19 03:06:28;;;;;;;3.10;1.30;;;8.80;99.90;;;9.25;100.00;99034.94;4985444;28;21007;-75
2024/02/19 03:08:56;;;;;;;12.57;1.60;;;8.80;99.90;;;9.25;100.00;99040.97;4986712;28;20493;-75
2024/02/19 03:11:26;;;;;;;3.00;1.10;;;8.80;99.90;;;9.26;100.00;99040.00;4986706;28;20467;-74
2024/02/19 03:13:54;;;;;;;5.13;1.77;;;8.80;99.90;;;9.25;100.00;99046.19;4985517;28;20466;-74
2024/02/19 03:16:23;;;;;;;5.70;1.57;;;8.80;99.90;;;9.22;100.00;99058.72;4985656;28;20463;-75
2024/02/19 03:18:53;;;;;;;1.47;1.00;;;8.70;99.90;;;9.21;100.00;99050.09;4986870;28;20470;-75
2024/02/19 03:21:22;;;;;;;3.07;1.10;;;8.70;99.90;;;9.23;100.00;99042.94;4985103;28;20479;-74
2024/02/19 03:23:52;;;;;;;3.33;1.20;;;8.70;99.90;;;9.22;100.00;99056.94;4985918;28;20463;-74
2024/02/19 03:26:25;;;;;;;10.57;1.50;;;8.70;99.90;;;9.19;100.00;99057.25;4985393;28;20562;-75
2024/02/19 03:29:12;;;;;;;11.03;1.33;;;8.70;99.90;;;9.19;100.00;99059.88;4985280;28;21132;-75
2024/02/19 03:31:43;;;;;;;5.40;1.40;;;8.70;99.90;;;9.20;100.00;99053.66;4986930;28;20486;-75
2024/02/19 03:34:13;;;;;;;1.23;1.07;;;8.80;99.90;;;9.19;100.00;99059.88;4985496;28;20471;-75
2024/02/19 03:36:50;;;;;;;2.30;1.40;;;8.70;99.90;;;9.19;100.00;99066.88;4985500;28;20463;-75
2024/02/19 03:39:19;;;;;;;5.30;1.10;;;8.70;99.90;;;9.20;100.00;99064.09;4986293;28;20787;-74
2024/02/19 03:41:49;;;;;;;1.00;0.90;;;8.80;99.90;;;9.23;100.00;99063.81;4985926;28;21097;-75
2024/02/19 03:44:17;;;;;;;2.37;1.00;;;8.80;99.90;;;9.19;100.00;99066.88;4986788;28;20558;-75
2024/02/19 03:46:46;;;;;;;3.07;1.23;;;8.80;99.90;;;9.17;100.00;99063.56;4986367;28;20503;-75
2024/02/19 03:49:15;;;;;;;6.87;1.43;;;8.70;99.90;;;9.11;100.00;99078.06;4987207;28;20503;-75
2024/02/19 03:51:44;;;;;;;7.47;1.30;;;8.80;99.90;;;9.11;100.00;99080.66;4986494;28;20470;-75
2024/02/19 03:54:13;;;;;;;5.77;1.33;;;8.80;99.90;;;9.13;100.00;99072.72;4987500;28;20563;-75
2024/02/19 03:56:42;;;;;;;2.37;0.93;;;8.70;99.90;;;9.14;100.00;99085.59;4986086;28;20864;-75
2024/02/19 03:59:11;;;;;;;2.70;1.47;;;8.70;99.90;;;9.13;100.00;99083.94;4986301;28;20464;-75
2024/02/19 04:01:39;;;;;;;2.60;1.80;;;8.80;99.90;;;9.05;100.00;99089.13;4982418;28;20463;-75
2024/02/19 04:04:08;;;;;;;4.40;1.00;;;8.70;99.90;;;9.05;100.00;99091.72;4982239;28;20705;-75
2024/02/19 04:06:38;;;;;;;1.40;0.90;;;8.60;99.90;;;9.02;100.00;99094.63;4982496;28;20506;-75
2024/02/19 04:09:07;;;;;;;6.50;1.60;;;8.60;99.90;;;9.07;100.00;99092.38;4983160;28;20652;-75
2024/02/19 04:11:35;;;;;;;2.47;1.20;;;8.60;99.90;;;9.08;100.00;99097.47;4982891;28;20460;-75
2024/02/19 04:14:04;;;;;;;3.20;1.07;;;8.60;99.90;;;9.01;100.00;99098.22;4983604;28;20582;-75
2024/02/19 04:16:32;;;;;;;1.23;1.07;;;8.60;99.90;;;9.00;100.00;99104.38;4980600;28;20472;-74
2024/02/19 04:19:01;;;;;;;1.83;1.00;;;8.60;99.90;;;9.00;100.00;99107.00;4982646;28;20848;-75
2024/02/19 04:21:29;;;;;;;3.07;1.60;;;8.50;99.90;;;9.00;100.00;99110.44;4982841;28;20470;-75
2024/02/19 04:23:59;;;;;;;4.60;1.10;;;8.50;99.90;;;9.00;100.00;99117.44;4983388;28;21054;-75
2024/02/19 04:26:28;;;;;;;1.93;1.03;;;8.50;99.90;;;8.99;100.00;99113.16;4982091;28;20488;-75
2024/02/19 04:28:56;;;;;;;4.33;1.20;;;8.50;99.90;;;8.94;100.00;99108.44;4983456;28;20467;-75
2024/02/19 04:31:25;;;;;;;2.30;0.97;;;8.40;99.90;;;8.96;100.00;99113.47;4983330;28;20467;-75
2024/02/19 04:33:53;;;;;;;5.93;1.30;;;8.50;99.90;;;8.93;100.00;99119.00;4982825;28;20461;-76
2024/02/19 04:36:22;;;;;;;1.97;1.00;;;8.40;99.90;;;8.92;100.00;99122.59;4983863;28;20471;-74
2024/02/19 04:38:50;;;;;;;3.20;1.60;;;8.40;99.90;;;8.95;100.00;99119.69;4983389;28;20464;-76
2024/02/19 04:41:20;;;;;;;2.60;1.33;;;8.40;99.90;;;8.94;100.00;99123.25;4983242;28;20471;-74
2024/02/19 04:43:49;;;;;;;3.33;1.33;;;8.50;99.90;;;9.00;100.00;99127.88;4981495;28;20472;-75
2024/02/19 04:46:17;;;;;;;4.07;1.07;;;8.50;99.90;;;8.99;100.00;99128.81;4981700;28;20506;-76
2024/02/19 04:48:46;;;;;;;2.00;1.10;;;8.50;99.90;;;8.97;100.00;99128.16;4983406;28;20547;-75
2024/02/19 04:51:14;;;;;;;3.30;1.13;;;8.50;99.90;;;8.98;100.00;99122.81;4981921;28;20883;-75
2024/02/19 04:53:43;;;;;;;4.37;1.77;;;8.50;99.90;;;8.98;100.00;99127.22;4982233;28;20467;-75
2024/02/19 04:56:15;;;;;;;5.60;1.13;;;8.50;99.90;;;8.94;100.00;99131.91;4982756;28;20990;-75
2024/02/19 04:58:45;;;;;;;2.67;1.23;;;8.50;99.90;;;8.94;100.00;99134.50;4981774;28;20479;-75
2024/02/19 05:01:14;;;;;;;1.73;1.20;;;8.40;99.90;;;8.98;100.00;99140.25;4982749;28;20478;-75
2024/02/19 05:03:42;;;;;;;2.50;1.30;;;8.40;99.90;;;8.93;100.00;99140.69;4982636;28;20834;-75
2024/02/19 05:06:11;;;;;;;2.67;1.13;;;8.40;99.90;;;8.97;100.00;99143.81;4982076;28;20742;-75
2024/02/19 05:08:40;;;;;;;2.80;1.30;;;8.40;99.90;;;8.94;100.00;99142.34;4981763;28;20604;-75
2024/02/19 05:11:08;;;;;;;1.83;1.10;;;8.40;99.90;;;8.95;100.00;99151.81;4980359;28;20474;-75
2024/02/19 05:13:37;;;;;;;3.40;1.43;;;8.50;99.90;;;8.94;100.00;99155.38;4981188;28;21025;-75
2024/02/19 05:16:08;;;;;;;2.27;1.37;;;8.40;99.90;;;8.89;100.00;99151.56;4981451;28;20460;-75
2024/02/19 05:18:37;;;;;;;1.87;1.43;;;8.40;99.90;;;8.94;100.00;99151.94;4981776;28;20582;-74
2024/02/19 05:21:06;;;;;;;1.30;1.20;;;8.40;99.90;;;8.93;100.00;99151.13;4982368;28;20677;-75
2024/02/19 05:23:35;;;;;;;2.17;1.10;;;8.40;99.90;;;8.89;100.00;99149.78;4981221;28;20460;-75
2024/02/19 05:26:04;;;;;;;2.77;1.00;;;8.50;99.90;;;8.91;100.00;99149.63;4980895;28;20467;-75
2024/02/19 05:28:36;;;;;;;3.00;1.23;;;8.40;99.90;;;8.95;100.00;99144.00;4981298;28;20461;-75
2024/02/19 05:31:07;;;;;;;1.20;1.00;;;8.40;99.90;;;8.98;100.00;99142.84;4981538;28;20460;-75
2024/02/19 05:33:35;;;;;;;6.20;1.17;;;8.40;99.90;;;8.99;100.00;99144.47;4982296;28;20495;-75
2024/02/19 05:36:05;;;;;;;5.90;1.23;;;8.40;99.90;;;8.99;100.00;99147.09;4982251;28;20468;-75
2024/02/19 05:38:34;;;;;;;4.90;1.07;;;8.40;99.90;;;8.99;100.00;99145.31;4980763;28;20471;-75
2024/02/19 05:41:07;;;;;;;4.40;1.20;;;8.40;99.90;;;8.95;100.00;99151.00;4981629;28;20494;-75
2024/02/19 05:43:35;;;;;;;2.70;0.90;;;8.50;99.90;;;8.96;100.00;99147.38;4981244;28;20469;-75
2024/02/19 05:46:04;;;;;;;3.00;1.10;;;8.50;99.90;;;8.99;100.00;99147.09;4981236;28;20985;-75
2024/02/19 05:48:34;;;;;;;2.20;1.03;;;8.40;99.90;;;8.97;100.00;99146.44;4979698;28;20566;-75
2024/02/19 05:51:03;;;;;;;5.20;1.33;;;8.30;99.90;;;8.92;100.00;99143.47;4980405;28;20475;-75
2024/02/19 05:53:33;;;;;;;3.73;1.07;;;8.40;99.90;;;8.91;100.00;99149.63;4979733;28;20460;-76
2024/02/19 05:56:02;;;;;;;3.30;1.47;;;8.40;99.90;;;8.88;100.00;99152.56;4980805;28;22189;-75
2024/02/19 05:58:30;;;;;;;2.37;1.33;;;8.30;99.90;;;8.91;100.00;99152.25;4981879;28;20864;-75
2024/02/19 06:00:59;;;;;;;5.77;1.33;;;8.30;99.90;;;8.91;100.00;99152.25;4980332;28;20457;-75
2024/02/19 06:03:27;;;;;;;3.10;1.30;;;8.30;99.90;;;8.93;100.00;99153.72;4980789;28;20464;-75
2024/02/19 06:05:57;;;;;;;3.80;1.40;;;8.40;99.90;;;8.93;100.00;99155.50;4980344;28;20471;-75
2024/02/19 06:08:26;;;;;;;2.60;1.00;;;8.40;99.90;;;8.87;100.00;99158.72;4981462;28;20483;-75
2024/02/19 06:10:55;;;;;;;6.73;1.23;;;8.40;99.90;;;8.89;100.00;99162.00;4980572;28;20467;-76
2024/02/19 06:13:24;;;;;;;3.63;1.10;;;8.40;99.90;;;8.91;100.00;99162.69;4976410;28;20679;-75
2024/02/19 06:15:53;;;;;;;4.50;1.13;;;8.30;99.90;;;8.90;100.00;99167.06;4969256;28;20523;-76
2024/02/19 06:18:22;;;;;;;1.77;1.10;;;8.30;99.90;;;8.92;100.00;99164.34;4972763;28;20510;-80
2024/02/19 06:20:51;;;;;;;2.13;1.33;;;8.30;99.90;;;8.95;100.00;99169.25;4969436;28;20464;-75
2024/02/19 06:23:21;;;;;;;1.40;1.07;;;8.30;99.90;;;8.94;100.00;99172.81;4972642;28;20908;-81
2024/02/19 06:25:49;;;;;;;6.50;2.80;;;8.20;99.90;;;8.91;100.00;99176.53;4971986;28;20740;-75
2024/02/19 06:28:18;;;;;;;5.40;1.20;;;8.30;99.90;;;8.92;100.00;99182.59;4978623;28;20495;-75
2024/02/19 06:30:46;;;;;;;5.90;1.27;;;8.20;99.90;;;8.87;100.00;99183.03;4980433;28;20467;-75
2024/02/19 06:33:17;;;;;;;2.57;1.17;;;8.20;99.90;;;8.86;100.00;99180.56;4979910;28;20471;-74
2024/02/19 06:35:45;;;;;;;3.47;1.10;;;8.10;99.90;;;8.86;100.00;99175.34;4980495;28;20559;-75
2024/02/19 06:38:14;;;;;;;1.10;1.00;;;8.20;99.90;;;8.90;100.00;99176.69;4980111;28;20464;-74
2024/02/19 06:40:43;;;;;;;2.50;1.20;;;8.20;99.90;;;8.81;100.00;99185.41;4980213;28;20476;-75
2024/02/19 06:43:12;;;;;;;1.53;1.27;;;8.10;99.90;;;8.80;100.00;99186.38;4980128;28;20514;-75
2024/02/19 06:45:40;;;;;;;3.83;1.10;;;8.10;99.90;;;8.82;100.00;99200.06;4979876;28;20507;-76
2024/02/19 06:48:09;;;;;;;2.00;1.20;;;8.10;99.90;;;8.79;100.00;99195.97;4981068;28;20495;-75
2024/02/19 06:50:38;;;;;;;1.57;1.13;;;8.00;99.90;;;8.77;100.00;99204.91;4980537;28;20946;-75
2024/02/19 06:53:07;;;;;;;9.67;1.20;;;8.10;99.90;;;8.79;100.00;99211.63;4975230;28;21056;-75
2024/02/19 06:55:35;;;;;;;3.80;1.20;;;8.00;99.90;;;8.74;100.00;99223.47;4974263;28;20962;-75
2024/02/19 06:58:05;;;;;;;8.07;1.23;;;8.20;99.90;;;8.76;100.00;99226.75;4974384;28;21054;-75
2024/02/19 07:00:34;;;;;;;3.23;1.20;;;8.10;99.90;;;8.75;100.00;99231.13;4979224;28;20931;-75
2024/02/19 07:03:05;;;;;;;4.00;1.63;;;8.10;99.90;;;8.74;100.00;99239.13;4980741;28;20474;-75
2024/02/19 07:05:34;;;;;;;1.43;1.00;;;8.10;99.90;;;8.72;100.00;99238.41;4980894;28;20763;-75
2024/02/19 07:08:02;;;;;;;3.13;1.27;;;8.10;99.90;;;8.70;100.00;99237.75;4980080;28;21253;-75
2024/02/19 07:10:31;;;;;;;10.73;1.50;;;8.10;99.90;;;8.70;100.00;99232.53;4980198;28;21808;-75
2024/02/19 07:12:59;;;;;;;3.50;1.17;;;8.10;99.90;;;8.70;100.00;99240.38;4979579;28;20897;-75
2024/02/19 07:15:29;;;;;;;4.40;1.40;;;8.00;99.90;;;8.71;100.00;99249.84;4979971;28;20460;-75
2024/02/19 07:17:58;;;;;;;2.00;1.10;;;8.00;99.90;;;8.71;100.00;99253.25;4979092;28;21116;-75
2024/02/19 07:20:26;;;;;;;7.63;1.30;;;8.00;99.90;;;8.70;100.00;99251.63;4979870;28;20459;-75
2024/02/19 07:22:55;;;;;;;1.63;1.10;;;8.10;99.90;;;8.75;100.00;99251.16;4979454;28;20464;-76
2024/02/19 07:25:24;;;;;;;2.60;1.47;;;8.10;99.90;;;8.73;100.00;99243.50;4978605;28;20467;-75
2024/02/19 07:27:52;;;;;;;2.30;1.00;;;8.10;99.90;;;8.77;100.00;99251.84;4978705;28;20692;-74
2024/02/19 07:30:21;;;;;;;3.43;1.20;;;8.00;99.90;;;8.77;100.00;99257.91;4979151;28;20462;-76
2024/02/19 07:32:51;;;;;;;2.57;1.33;;;8.00;99.90;;;8.77;100.00;99268.34;4979864;28;20598;-76
2024/02/19 07:35:19;;;;;;;2.37;1.50;;;8.00;99.90;;;8.73;100.00;99264.38;4983607;28;20460;-76
2024/02/19 07:37:48;;;;;;;4.20;1.57;;;8.10;99.90;;;8.74;100.00;99266.00;4983856;28;20889;-75
2024/02/19 07:40:17;;;;;;;3.57;1.37;;;8.10;99.90;;;8.78;100.00;99269.16;4982377;28;20463;-74
2024/02/19 07:42:46;;;;;;;2.80;1.30;;;8.10;99.90;;;8.77;100.00;99275.31;4983310;28;20480;-75
2024/02/19 07:45:14;;;;;;;6.53;1.70;;;8.20;99.90;;;8.79;100.00;99276.00;4983232;28;20468;-75
2024/02/19 07:47:43;;;;;;;12.87;1.70;;;8.10;99.90;;;8.80;100.00;99277.66;4983943;28;20495;-75
2024/02/19 07:50:13;;;;;;;5.17;2.00;;;8.10;99.90;;;8.81;100.00;99287.13;4977238;28;20831;-79
2024/02/19 07:52:43;;;;;;;6.43;1.70;;;8.10;99.90;;;8.84;100.00;99289.44;4978032;28;20554;-75
2024/02/19 07:55:11;;;;;;;2.92;1.50;;;8.10;99.90;;;8.87;100.00;99289.13;4975524;28;20749;-75
2024/02/19 07:57:41;;;;;;;5.03;1.50;;;8.10;99.90;;;8.87;100.00;99291.75;4987587;28;20298;-76
2024/02/19 08:00:11;;;;;;;3.00;1.53;;;8.10;99.90;;;8.92;100.00;99290.34;4987811;28;20463;-76
2024/02/19 08:02:39;;;;;;;6.70;1.23;;;8.10;99.90;;;8.88;100.00;99290.78;4987284;28;20472;-75
2024/02/19 08:05:09;;;;;;;3.10;1.30;;;8.20;99.90;;;8.84;100.00;99294.66;4985236;28;20468;-76
2024/02/19 08:07:39;;;;;;;4.33;1.17;;;8.10;99.90;;;8.86;100.00;99290.09;4985693;28;20463;-75
2024/02/19 08:10:08;;;;;;;2.90;1.43;;;8.20;99.90;;;8.91;100.00;99293.09;4986226;28;20479;-75
2024/02/19 08:12:37;;;;;;;3.20;1.70;;;8.20;99.90;;;8.89;100.00;99300.22;4986493;28;20459;-76
2024/02/19 08:15:11;;;;;;;11.67;1.57;;;8.20;99.90;;;8.93;100.00;99301.59;4986656;28;20463;-76
2024/02/19 08:17:39;;;;;;;8.50;1.80;;;8.20;99.90;;;8.94;100.00;99301.47;4988522;28;20464;-76
2024/02/19 08:20:10;;;;;;;2.83;1.20;;;8.30;99.90;;;8.95;100.00;99302.28;4987362;28;20468;-76
2024/02/19 08:22:39;;;;;;;4.10;1.40;;;8.30;99.90;;;8.95;100.00;99299.69;4988007;28;20491;-76
2024/02/19 08:25:12;;;;;;;6.53;1.70;;;8.30;99.90;;;9.00;100.00;99303.47;4978171;28;20574;-75
2024/02/19 08:27:41;;;;;;;39.77;14.77;;;8.30;99.90;;;9.06;100.00;99302.06;4978073;28;20492;-75
2024/02/19 08:30:09;;;;;;;15.23;1.70;;;8.30;99.90;;;9.06;100.00;99297.66;4977121;28;20476;-76
2024/02/19 08:32:38;;;;;;;6.30;1.50;;;8.30;99.90;;;9.13;100.00;99313.56;4977197;28;20471;-75
2024/02/19 08:35:07;;;;;;;1.40;1.10;;;8.40;99.90;;;9.14;100.00;99299.53;4978719;28;20483;-80
2024/02/19 08:37:36;;;;;;;53.60;22.47;;;8.50;99.90;;;9.15;100.00;99306.41;4977630;28;20476;-76
2024/02/19 08:40:08;;;;;;;6.00;2.00;;;8.50;99.90;;;9.21;100.00;99303.22;4981972;28;20836;-76
2024/02/19 08:42:38;;;;;;;4.50;1.60;;;8.50;99.90;;;9.19;100.00;99301.72;4983031;28;20463;-76
2024/02/19 08:45:08;;;;;;;10.90;1.27;;;8.60;99.90;;;9.20;100.00;99303.38;4983130;28;20476;-76
2024/02/19 08:47:37;;;;;;;12.07;1.60;;;8.60;99.90;;;9.19;100.00;99297.34;4982768;28;20857;-75
2024/02/19 08:50:07;;;;;;;2.13;1.30;;;8.70;99.90;;;9.21;100.00;99316.25;4983211;28;20773;-75
2024/02/19 08:52:38;;;;;;;7.10;1.57;;;8.60;99.90;;;9.28;100.00;99309.50;4983445;28;20460;-76
2024/02/19 08:55:10;;;;;;;3.37;1.67;;;8.60;99.90;;;9.32;100.00;99303.00;4981792;28;20475;-76
2024/02/19 08:57:39;;;;;;;3.73;1.20;;;8.70;99.90;;;9.32;100.00;99308.22;4982360;28;20451;-76
2024/02/19 09:00:11;;;;;;;2.83;1.30;;;8.80;99.90;;;9.37;100.00;99305.97;4983391;28;20472;-76
2024/02/19 09:02:42;;;;;;;7.90;1.53;;;8.70;99.90;;;9.41;100.00;99315.16;4982311;28;20472;-75
2024/02/19 09:05:11;;;;;;;11.87;1.87;;;8.80;99.90;;;9.41;100.00;99309.94;4981925;28;20581;-76
2024/02/19 09:07:39;;;;;;;5.80;1.67;;;8.80;99.90;;;9.47;100.00;99311.97;4983342;28;20460;-76
2024/02/19 09:10:10;;;;;;;2.67;1.47;;;8.90;99.90;;;9.54;100.00;99307.78;4982342;28;21030;-76
2024/02/19 09:12:41;;;;;;;6.60;1.47;;;8.90;99.90;;;9.60;100.00;99301.97;4981520;28;20863;-76
2024/02/19 09:15:10;;;;;;;0.97;0.87;;;9.00;99.90;;;9.59;100.00;99312.56;4981931;28;20869;-75
2024/02/19 09:17:39;;;;;;;8.17;1.83;;;8.90;99.90;;;9.65;100.00;99316.38;4982485;28;20510;-76
2024/02/19 09:20:09;;;;;;;4.03;1.50;;;9.10;99.90;;;9.61;100.00;99315.84;4982647;28;20470;-76
2024/02/19 09:22:38;;;;;;;2.70;1.33;;;9.00;99.90;;;9.64;100.00;99301.69;4982020;28;20464;-76
2024/02/19 09:25:07;;;;;;;3.40;1.63;;;9.10;99.90;;;9.73;100.00;99293.75;4981259;28;20486;-76
2024/02/19 09:27:37;;;;;;;5.37;1.40;;;9.10;99.90;;;9.74;100.00;99290.19;4982675;28;20832;-76
2024/02/19 09:30:07;;;;;;;3.77;1.30;;;9.10;99.90;;;9.78;100.00;99288.09;4980256;28;20953;-76
2024/02/19 09:32:36;;;;;;;3.63;1.00;;;9.10;99.90;;;9.75;100.00;99291.00;4982791;28;20953;-76
2024/02/19 09:35:06;;;;;;;3.40;1.40;;;9.20;99.90;;;9.72;100.00;99279.03;4981578;28;20550;-76
2024/02/19 09:37:35;;;;;;;3.00;1.43;;;9.10;99.90;;;9.71;100.00;99292.28;4981864;28;20464;-76
2024/02/19 09:40:06;;;;;;;1.63;1.13;;;9.00;99.90;;;9.72;100.00;99294.72;4981232;28;20797;-76
2024/02/19 09:42:37;;;;;;;7.50;2.00;;;9.00;99.90;;;9.76;100.00;99290.00;4981538;28;20958;-76
2024/02/19 09:45:09;;;;;;;3.00;1.23;;;9.10;99.90;;;9.79;100.00;99294.97;4981621;28;20511;-75
2024/02/19 09:47:44;;;;;;;4.30;1.60;;;9.20;99.90;;;9.81;100.00;99285.16;4982537;28;20815;-76
2024/02/19 09:50:14;;;;;;;4.97;2.17;;;9.20;99.90;;;9.87;100.00;99287.16;4981118;28;20502;-75
2024/02/19 09:52:45;;;;;;;6.57;1.50;;;9.30;99.90;;;9.94;100.00;99288.19;4977602;28;20595;-76
2024/02/19 09:55:14;;;;;;;7.37;3.73;;;9.40;99.90;;;10.01;100.00;99291.84;4974745;28;20478;-82
2024/02/19 09:57:45;;;;;;;6.70;1.90;;;9.40;99.90;;;10.03;100.00;99300.38;4977699;28;20468;-75
2024/02/19 10:00:21;;;;;;;4.60;1.40;;;9.30;99.90;;;10.05;100.00;99301.03;4980927;28;20494;-75
2024/02/19 10:02:49;;;;;;;4.07;1.30;;;9.30;99.90;;;10.09;100.00;99291.91;4981347;28;20470;-75
2024/02/19 10:05:18;;;;;;;6.60;1.83;;;9.40;99.90;;;10.15;100.00;99290.50;4981301;28;20459;-76
2024/02/19 10:07:47;;;;;;;7.73;1.90;;;9.40;99.90;;;10.18;100.00;99296.25;4981230;28;20526;-76
2024/02/19 10:10:17;;;;;;;3.73;1.50;;;9.50;99.90;;;10.21;100.00;99288.09;4981071;28;20503;-76
2024/02/19 10:12:47;;;;;;;11.07;1.47;;;9.50;99.90;;;10.25;100.00;99292.03;4979160;28;20467;-76
2024/02/19 10:15:15;;;;;;;3.00;1.50;;;9.60;99.90;;;10.30;100.00;99284.56;4979282;28;20470;-75
2024/02/19 10:17:44;;;;;;;11.00;2.30;;;9.60;99.90;;;10.38;100.00;99287.22;4980085;28;20475;-75
2024/02/19 10:20:13;;;;;;;6.67;1.90;;;9.70;99.90;;;10.41;100.00;99279.06;4978267;28;20475;-75
2024/02/19 10:22:42;;;;;;;7.80;1.60;;;9.70;99.90;;;10.38;100.00;99286.38;4981039;28;20543;-76
2024/02/19 10:25:12;;;;;;;7.73;1.80;;;9.70;99.90;;;10.37;100.00;99285.59;4981552;28;20498;-76
2024/02/19 10:27:40;;;;;;;5.40;1.60;;;9.70;99.90;;;10.39;100.00;99283.63;4979528;28;20856;-75
2024/02/19 10:30:13;;;;;;;7.77;1.77;;;9.70;99.90;;;10.41;100.00;99276.44;4981239;28;20499;-75
2024/02/19 10:32:42;;;;;;;6.70;2.43;;;9.70;99.90;;;10.45;100.00;99271.72;4981390;28;20827;-75
2024/02/19 10:35:11;;;;;;;6.13;1.80;;;9.90;99.90;;;10.48;100.00;99267.00;4982961;28;20755;-75